sensor_id;sensor_type;location;lat;lon;timestamp;pressure;altitude;pressure_sealevel;temperature;humidity
6032;BME280;3044;43.232;27.972;2023-04-20T00:02:09;44226.56;;;-143.84;86.65
6032;BME280;3044;43.232;27.972;2023-04-20T00:04:41;44327.47;;;-143.84;86.48
6032;BME280;3044;43.232;27.972;2023-04-20T00:07:08;44319.84;;;-143.84;86.82
6032;BME280;3044;43.232;27.972;2023-04-20T00:09:35;44382.69;;;-143.84;86.44
6032;BME280;3044;43.232;27.972;2023-04-20T00:12:03;44420.75;;;-143.84;86.31
6032;BME280;3044;43.232;27.972;2023-04-20T00:14:30;44514.03;;;-143.84;86.22
6032;BME280;3044;43.232;27.972;2023-04-20T00:16:57;44544.50;;;-143.84;85.89
6032;BME280;3044;43.232;27.972;2023-04-20T00:19:24;44592.09;;;-143.84;85.77
6032;BME280;3044;43.232;27.972;2023-04-20T00:21:54;44455.03;;;-143.84;86.34
6032;BME280;3044;43.232;27.972;2023-04-20T00:24:21;44314.13;;;-143.84;86.80
6032;BME280;3044;43.232;27.972;2023-04-20T00:26:48;44253.22;;;-143.84;86.87
6032;BME280;3044;43.232;27.972;2023-04-20T00:29:15;44209.44;;;-143.84;87.16
6032;BME280;3044;43.232;27.972;2023-04-20T00:31:42;44182.78;;;-143.84;86.94
6032;BME280;3044;43.232;27.972;2023-04-20T00:34:09;44247.50;;;-143.84;86.84
6032;BME280;3044;43.232;27.972;2023-04-20T00:36:37;44291.28;;;-143.84;86.94
6032;BME280;3044;43.232;27.972;2023-04-20T00:39:05;44342.69;;;-143.84;86.52
6032;BME280;3044;43.232;27.972;2023-04-20T00:41:32;44413.13;;;-143.84;86.51
6032;BME280;3044;43.232;27.972;2023-04-20T00:43:59;44426.47;;;-143.84;86.33
6032;BME280;3044;43.232;27.972;2023-04-20T00:46:26;44426.47;;;-143.84;86.45
6032;BME280;3044;43.232;27.972;2023-04-20T00:48:54;44416.94;;;-143.84;86.40
6032;BME280;3044;43.232;27.972;2023-04-20T00:51:22;44447.41;;;-143.84;86.15
6032;BME280;3044;43.232;27.972;2023-04-20T00:53:49;44378.88;;;-143.84;86.54
6032;BME280;3044;43.232;27.972;2023-04-20T00:56:18;44300.81;;;-143.84;86.48
6032;BME280;3044;43.232;27.972;2023-04-20T00:58:45;44289.41;;;-143.84;86.59
6032;BME280;3044;43.232;27.972;2023-04-20T01:01:12;44260.84;;;-143.84;86.88
6032;BME280;3044;43.232;27.972;2023-04-20T01:03:42;44159.94;;;-143.84;87.28
6032;BME280;3044;43.232;27.972;2023-04-20T01:06:09;44102.84;;;-143.84;87.52
6032;BME280;3044;43.232;27.972;2023-04-20T01:08:45;44078.09;;;-143.84;87.71
6032;BME280;3044;43.232;27.972;2023-04-20T01:11:12;44043.81;;;-143.84;87.74
6032;BME280;3044;43.232;27.972;2023-04-20T01:13:41;44059.03;;;-143.84;87.58
6032;BME280;3044;43.232;27.972;2023-04-20T01:16:08;44087.59;;;-143.84;87.41
6032;BME280;3044;43.232;27.972;2023-04-20T01:18:43;44091.41;;;-143.84;87.25
6032;BME280;3044;43.232;27.972;2023-04-20T01:21:11;44146.63;;;-143.84;87.59
6032;BME280;3044;43.232;27.972;2023-04-20T01:23:40;44171.38;;;-143.84;87.50
6032;BME280;3044;43.232;27.972;2023-04-20T01:26:08;44150.41;;;-143.84;87.18
6032;BME280;3044;43.232;27.972;2023-04-20T01:28:36;44158.03;;;-143.84;87.28
6032;BME280;3044;43.232;27.972;2023-04-20T01:31:04;44243.69;;;-143.84;86.71
6032;BME280;3044;43.232;27.972;2023-04-20T01:33:32;44285.59;;;-143.84;86.94
6032;BME280;3044;43.232;27.972;2023-04-20T01:35:59;44390.28;;;-143.84;86.38
6032;BME280;3044;43.232;27.972;2023-04-20T01:38:27;44416.94;;;-143.84;86.47
6032;BME280;3044;43.232;27.972;2023-04-20T01:40:58;44453.13;;;-143.84;86.25
6032;BME280;3044;43.232;27.972;2023-04-20T01:43:25;44495.00;;;-143.84;86.21
6032;BME280;3044;43.232;27.972;2023-04-20T01:45:52;44487.38;;;-143.84;86.37
6032;BME280;3044;43.232;27.972;2023-04-20T01:48:19;44460.72;;;-143.84;86.25
6032;BME280;3044;43.232;27.972;2023-04-20T01:50:49;44224.66;;;-143.84;87.05
6032;BME280;3044;43.232;27.972;2023-04-20T01:53:17;44198.00;;;-143.84;87.35
6032;BME280;3044;43.232;27.972;2023-04-20T01:55:44;44116.16;;;-143.84;87.67
6032;BME280;3044;43.232;27.972;2023-04-20T01:58:12;44051.44;;;-143.84;87.95
6032;BME280;3044;43.232;27.972;2023-04-20T02:00:40;44009.56;;;-143.84;87.85
6032;BME280;3044;43.232;27.972;2023-04-20T02:03:07;44038.09;;;-143.84;88.18
6032;BME280;3044;43.232;27.972;2023-04-20T02:05:34;44024.78;;;-143.84;87.99
6032;BME280;3044;43.232;27.972;2023-04-20T02:08:01;43988.63;;;-143.84;88.47
6032;BME280;3044;43.232;27.972;2023-04-20T02:10:29;44028.59;;;-143.84;88.33
6032;BME280;3044;43.232;27.972;2023-04-20T02:12:56;44015.25;;;-143.84;88.44
6032;BME280;3044;43.232;27.972;2023-04-20T02:15:24;43990.53;;;-143.84;88.47
6032;BME280;3044;43.232;27.972;2023-04-20T02:17:51;44001.94;;;-143.84;88.18
6032;BME280;3044;43.232;27.972;2023-04-20T02:20:19;44003.84;;;-143.84;87.99
6032;BME280;3044;43.232;27.972;2023-04-20T02:22:46;43965.78;;;-143.84;88.38
6032;BME280;3044;43.232;27.972;2023-04-20T02:25:13;43960.06;;;-143.84;88.25
6032;BME280;3044;43.232;27.972;2023-04-20T02:27:41;43984.81;;;-143.84;88.39
6032;BME280;3044;43.232;27.972;2023-04-20T02:30:09;44013.38;;;-143.84;88.18
6032;BME280;3044;43.232;27.972;2023-04-20T02:32:38;44026.69;;;-143.84;88.13
6032;BME280;3044;43.232;27.972;2023-04-20T02:35:06;44051.44;;;-143.84;87.59
6032;BME280;3044;43.232;27.972;2023-04-20T02:37:33;44072.38;;;-143.84;87.46
6032;BME280;3044;43.232;27.972;2023-04-20T02:40:00;44108.53;;;-143.84;87.56
6032;BME280;3044;43.232;27.972;2023-04-20T02:42:28;44053.34;;;-143.84;87.94
6032;BME280;3044;43.232;27.972;2023-04-20T02:44:55;44036.22;;;-143.84;87.89
6032;BME280;3044;43.232;27.972;2023-04-20T02:47:22;43944.84;;;-143.84;88.58
6032;BME280;3044;43.232;27.972;2023-04-20T02:49:50;43948.63;;;-143.84;88.50
6032;BME280;3044;43.232;27.972;2023-04-20T02:52:18;43916.28;;;-143.84;89.20
6032;BME280;3044;43.232;27.972;2023-04-20T02:54:45;43880.13;;;-143.84;89.67
6032;BME280;3044;43.232;27.972;2023-04-20T02:57:12;43857.28;;;-143.84;89.80
6032;BME280;3044;43.232;27.972;2023-04-20T02:59:39;43861.06;;;-143.84;89.67
6032;BME280;3044;43.232;27.972;2023-04-20T03:02:06;43862.97;;;-143.84;90.09
6032;BME280;3044;43.232;27.972;2023-04-20T03:04:33;43847.75;;;-143.84;90.32
6032;BME280;3044;43.232;27.972;2023-04-20T03:07:02;43862.97;;;-143.84;90.31
6032;BME280;3044;43.232;27.972;2023-04-20T03:09:30;43876.31;;;-143.84;90.56
6032;BME280;3044;43.232;27.972;2023-04-20T03:11:57;43851.56;;;-143.84;90.44
6032;BME280;3044;43.232;27.972;2023-04-20T03:14:24;43832.53;;;-143.84;90.70
6032;BME280;3044;43.232;27.972;2023-04-20T03:16:51;43834.44;;;-143.84;90.45
6032;BME280;3044;43.232;27.972;2023-04-20T03:19:18;43855.38;;;-143.84;90.38
6032;BME280;3044;43.232;27.972;2023-04-20T03:21:46;43857.28;;;-143.84;90.64
6032;BME280;3044;43.232;27.972;2023-04-20T03:24:15;43813.50;;;-143.84;91.04
6032;BME280;3044;43.232;27.972;2023-04-20T03:26:42;43878.22;;;-143.84;91.30
6032;BME280;3044;43.232;27.972;2023-04-20T03:29:09;43893.44;;;-143.84;91.57
6032;BME280;3044;43.232;27.972;2023-04-20T03:31:36;43866.78;;;-143.84;91.64
6032;BME280;3044;43.232;27.972;2023-04-20T03:34:03;43883.91;;;-143.84;91.77
6032;BME280;3044;43.232;27.972;2023-04-20T03:36:31;43902.97;;;-143.84;92.41
6032;BME280;3044;43.232;27.972;2023-04-20T03:38:58;43882.00;;;-143.84;92.20
6032;BME280;3044;43.232;27.972;2023-04-20T03:41:26;43893.44;;;-143.84;92.03
6032;BME280;3044;43.232;27.972;2023-04-20T03:43:53;43897.25;;;-143.84;91.78
6032;BME280;3044;43.232;27.972;2023-04-20T03:46:21;43887.72;;;-143.84;91.89
6032;BME280;3044;43.232;27.972;2023-04-20T03:48:48;43883.91;;;-143.84;91.23
6032;BME280;3044;43.232;27.972;2023-04-20T03:51:15;43823.00;;;-143.84;91.21
6032;BME280;3044;43.232;27.972;2023-04-20T03:53:42;43838.25;;;-143.84;90.82
6032;BME280;3044;43.232;27.972;2023-04-20T03:56:09;43861.06;;;-143.84;90.84
6032;BME280;3044;43.232;27.972;2023-04-20T03:58:38;43824.91;;;-143.84;90.81
6032;BME280;3044;43.232;27.972;2023-04-20T04:01:06;43832.53;;;-143.84;90.44
6032;BME280;3044;43.232;27.972;2023-04-20T04:03:34;43838.25;;;-143.84;89.61
6032;BME280;3044;43.232;27.972;2023-04-20T04:06:02;43895.34;;;-143.84;88.46
6032;BME280;3044;43.232;27.972;2023-04-20T04:08:29;44116.16;;;-143.84;87.44
6032;BME280;3044;43.232;27.972;2023-04-20T04:10:56;44228.47;;;-143.84;86.74
6032;BME280;3044;43.232;27.972;2023-04-20T04:13:23;44578.78;;;-143.84;85.40
6032;BME280;3044;43.232;27.972;2023-04-20T04:15:52;44654.94;;;-143.84;85.03
6032;BME280;3044;43.232;27.972;2023-04-20T04:18:19;44643.50;;;-143.84;85.32
6032;BME280;3044;43.232;27.972;2023-04-20T04:20:46;44609.22;;;-143.84;85.40
6032;BME280;3044;43.232;27.972;2023-04-20T04:23:13;44786.31;;;-143.84;84.34
6032;BME280;3044;43.232;27.972;2023-04-20T04:25:41;44793.91;;;-143.84;84.43
6032;BME280;3044;43.232;27.972;2023-04-20T04:28:08;44757.75;;;-143.84;84.64
6032;BME280;3044;43.232;27.972;2023-04-20T04:30:35;44780.59;;;-143.84;84.40
6032;BME280;3044;43.232;27.972;2023-04-20T04:33:03;44767.25;;;-143.84;84.44
6032;BME280;3044;43.232;27.972;2023-04-20T04:35:30;44767.25;;;-143.84;84.17
6032;BME280;3044;43.232;27.972;2023-04-20T04:37:59;44870.09;;;-143.84;83.74
6032;BME280;3044;43.232;27.972;2023-04-20T04:40:26;44978.63;;;-143.84;82.29
6032;BME280;3044;43.232;27.972;2023-04-20T04:42:53;45007.19;;;-143.84;82.11
6032;BME280;3044;43.232;27.972;2023-04-20T04:45:21;44972.91;;;-143.84;82.35
6032;BME280;3044;43.232;27.972;2023-04-20T04:47:50;44957.66;;;-143.84;82.15
6032;BME280;3044;43.232;27.972;2023-04-20T04:50:20;45037.66;;;-143.84;80.90
6032;BME280;3044;43.232;27.972;2023-04-20T04:52:47;45050.97;;;-143.84;80.48
6032;BME280;3044;43.232;27.972;2023-04-20T04:55:14;45047.16;;;-143.84;80.53
6032;BME280;3044;43.232;27.972;2023-04-20T04:57:41;45035.75;;;-143.84;81.69
6032;BME280;3044;43.232;27.972;2023-04-20T05:00:09;45049.06;;;-143.84;80.96
6032;BME280;3044;43.232;27.972;2023-04-20T05:02:37;45073.81;;;-143.84;80.25
6032;BME280;3044;43.232;27.972;2023-04-20T05:05:05;45049.06;;;-143.84;79.62
6032;BME280;3044;43.232;27.972;2023-04-20T05:07:34;45073.81;;;-143.84;79.67
6032;BME280;3044;43.232;27.972;2023-04-20T05:10:03;45075.72;;;-143.84;79.70
6032;BME280;3044;43.232;27.972;2023-04-20T05:12:30;45098.56;;;-143.84;79.42
6032;BME280;3044;43.232;27.972;2023-04-20T05:14:57;45070.00;;;-143.84;80.01
6032;BME280;3044;43.232;27.972;2023-04-20T05:17:24;45050.97;;;-143.84;80.53
6032;BME280;3044;43.232;27.972;2023-04-20T05:19:52;45018.59;;;-143.84;80.99
6032;BME280;3044;43.232;27.972;2023-04-20T05:22:19;45012.88;;;-143.84;81.55
6032;BME280;3044;43.232;27.972;2023-04-20T05:24:47;44984.31;;;-143.84;82.27
6032;BME280;3044;43.232;27.972;2023-04-20T05:27:15;44957.66;;;-143.84;82.24
6032;BME280;3044;43.232;27.972;2023-04-20T05:29:42;44932.91;;;-143.84;82.65
6032;BME280;3044;43.232;27.972;2023-04-20T05:32:09;44911.97;;;-143.84;83.02
6032;BME280;3044;43.232;27.972;2023-04-20T05:34:36;44885.31;;;-143.84;83.14
6032;BME280;3044;43.232;27.972;2023-04-20T05:37:03;44915.78;;;-143.84;83.05
6032;BME280;3044;43.232;27.972;2023-04-20T05:39:31;44868.19;;;-143.84;83.34
6032;BME280;3044;43.232;27.972;2023-04-20T05:41:59;44843.44;;;-143.84;83.95
6032;BME280;3044;43.232;27.972;2023-04-20T05:44:26;44744.41;;;-143.84;84.26
6032;BME280;3044;43.232;27.972;2023-04-20T05:46:53;44672.06;;;-143.84;84.79
6032;BME280;3044;43.232;27.972;2023-04-20T05:49:21;44571.16;;;-143.84;85.10
6032;BME280;3044;43.232;27.972;2023-04-20T05:51:48;44533.09;;;-143.84;85.40
6032;BME280;3044;43.232;27.972;2023-04-20T05:54:15;44565.44;;;-143.84;85.12
6032;BME280;3044;43.232;27.972;2023-04-20T05:56:42;44616.84;;;-143.84;85.08
6032;BME280;3044;43.232;27.972;2023-04-20T05:59:11;44565.44;;;-143.84;85.26
6032;BME280;3044;43.232;27.972;2023-04-20T06:01:38;44512.13;;;-143.84;85.51
6032;BME280;3044;43.232;27.972;2023-04-20T06:04:05;44424.56;;;-143.84;85.74
6032;BME280;3044;43.232;27.972;2023-04-20T06:06:33;44401.72;;;-143.84;85.77
6032;BME280;3044;43.232;27.972;2023-04-20T06:09:00;44283.69;;;-143.84;86.02
6032;BME280;3044;43.232;27.972;2023-04-20T06:11:28;44188.50;;;-143.84;86.37
6032;BME280;3044;43.232;27.972;2023-04-20T06:13:55;44224.66;;;-143.84;86.42
6032;BME280;3044;43.232;27.972;2023-04-20T06:16:23;44152.31;;;-143.84;86.49
6032;BME280;3044;43.232;27.972;2023-04-20T06:18:50;44297.00;;;-143.84;85.90
6032;BME280;3044;43.232;27.972;2023-04-20T06:21:18;44325.56;;;-143.84;85.94
6032;BME280;3044;43.232;27.972;2023-04-20T06:23:45;44289.41;;;-143.84;86.11
6032;BME280;3044;43.232;27.972;2023-04-20T06:26:12;44295.09;;;-143.84;86.28
6032;BME280;3044;43.232;27.972;2023-04-20T06:28:39;44230.38;;;-143.84;86.40
6032;BME280;3044;43.232;27.972;2023-04-20T06:31:07;44211.34;;;-143.84;86.57
6032;BME280;3044;43.232;27.972;2023-04-20T06:33:36;44247.50;;;-143.84;86.39
6032;BME280;3044;43.232;27.972;2023-04-20T06:36:05;44291.28;;;-143.84;86.26
6032;BME280;3044;43.232;27.972;2023-04-20T06:38:33;44203.72;;;-143.84;86.48
6032;BME280;3044;43.232;27.972;2023-04-20T06:41:00;44139.00;;;-143.84;86.74
6032;BME280;3044;43.232;27.972;2023-04-20T06:43:27;44091.41;;;-143.84;87.11
6032;BME280;3044;43.232;27.972;2023-04-20T06:45:55;44064.75;;;-143.84;87.22
6032;BME280;3044;43.232;27.972;2023-04-20T06:48:22;44040.00;;;-143.84;87.22
6032;BME280;3044;43.232;27.972;2023-04-20T06:50:50;44051.44;;;-143.84;87.22
6032;BME280;3044;43.232;27.972;2023-04-20T06:53:17;43992.41;;;-143.84;87.73
6032;BME280;3044;43.232;27.972;2023-04-20T06:55:44;43937.22;;;-143.84;87.94
6032;BME280;3044;43.232;27.972;2023-04-20T06:58:12;43933.41;;;-143.84;87.72
6032;BME280;3044;43.232;27.972;2023-04-20T07:00:39;44013.38;;;-143.84;87.39
6032;BME280;3044;43.232;27.972;2023-04-20T07:03:06;44207.53;;;-143.84;86.42
6032;BME280;3044;43.232;27.972;2023-04-20T07:05:35;44264.66;;;-143.84;86.10
6032;BME280;3044;43.232;27.972;2023-04-20T07:08:03;44384.59;;;-143.84;85.73
6032;BME280;3044;43.232;27.972;2023-04-20T07:10:31;44468.34;;;-143.84;85.57
6032;BME280;3044;43.232;27.972;2023-04-20T07:12:58;44376.97;;;-143.84;85.87
6032;BME280;3044;43.232;27.972;2023-04-20T07:15:25;44729.19;;;-143.84;84.29
6032;BME280;3044;43.232;27.972;2023-04-20T07:17:52;44925.31;;;-143.84;83.00
6032;BME280;3044;43.232;27.972;2023-04-20T07:20:19;44902.44;;;-143.84;83.09
6032;BME280;3044;43.232;27.972;2023-04-20T07:22:46;44963.38;;;-143.84;82.46
6032;BME280;3044;43.232;27.972;2023-04-20T07:25:15;44925.31;;;-143.84;82.84
6032;BME280;3044;43.232;27.972;2023-04-20T07:27:43;44856.75;;;-143.84;83.06
6032;BME280;3044;43.232;27.972;2023-04-20T07:30:10;44809.16;;;-143.84;83.88
6032;BME280;3044;43.232;27.972;2023-04-20T07:32:38;44702.53;;;-143.84;84.71
6032;BME280;3044;43.232;27.972;2023-04-20T07:35:07;44851.03;;;-143.84;83.31
6032;BME280;3044;43.232;27.972;2023-04-20T07:37:34;44971.00;;;-143.84;82.35
6032;BME280;3044;43.232;27.972;2023-04-20T07:40:01;44974.81;;;-143.84;82.13
6032;BME280;3044;43.232;27.972;2023-04-20T07:42:32;44984.31;;;-143.84;81.79
6032;BME280;3044;43.232;27.972;2023-04-20T07:45:01;44976.72;;;-143.84;81.55
6032;BME280;3044;43.232;27.972;2023-04-20T07:47:28;44995.75;;;-143.84;80.84
6032;BME280;3044;43.232;27.972;2023-04-20T07:49:55;45014.78;;;-143.84;81.31
6032;BME280;3044;43.232;27.972;2023-04-20T07:52:23;45003.38;;;-143.84;81.38
6032;BME280;3044;43.232;27.972;2023-04-20T07:54:50;45045.25;;;-143.84;80.62
6032;BME280;3044;43.232;27.972;2023-04-20T07:57:18;45020.50;;;-143.84;81.22
6032;BME280;3044;43.232;27.972;2023-04-20T07:59:47;45054.78;;;-143.84;80.05
6032;BME280;3044;43.232;27.972;2023-04-20T08:02:14;45108.09;;;-143.84;78.64
6032;BME280;3044;43.232;27.972;2023-04-20T08:04:42;45136.66;;;-143.84;77.27
6032;BME280;3044;43.232;27.972;2023-04-20T08:07:11;45119.53;;;-143.84;77.35
6032;BME280;3044;43.232;27.972;2023-04-20T08:09:38;45098.56;;;-143.84;77.46
6032;BME280;3044;43.232;27.972;2023-04-20T08:12:06;45089.06;;;-143.84;77.68
6032;BME280;3044;43.232;27.972;2023-04-20T08:14:33;45110.00;;;-143.84;77.00
6032;BME280;3044;43.232;27.972;2023-04-20T08:17:01;45121.44;;;-143.84;76.25
6032;BME280;3044;43.232;27.972;2023-04-20T08:19:28;45119.53;;;-143.84;75.75
6032;BME280;3044;43.232;27.972;2023-04-20T08:21:56;45100.47;;;-143.84;76.25
6032;BME280;3044;43.232;27.972;2023-04-20T08:24:23;45132.84;;;-143.84;75.18
6032;BME280;3044;43.232;27.972;2023-04-20T08:26:50;45121.44;;;-143.84;74.10
6032;BME280;3044;43.232;27.972;2023-04-20T08:29:17;45150.00;;;-143.84;73.78
6032;BME280;3044;43.232;27.972;2023-04-20T08:31:44;45121.44;;;-143.84;73.16
6032;BME280;3044;43.232;27.972;2023-04-20T08:34:12;45140.47;;;-143.84;73.62
6032;BME280;3044;43.232;27.972;2023-04-20T08:36:40;45140.47;;;-143.84;73.49
6032;BME280;3044;43.232;27.972;2023-04-20T08:39:08;45157.59;;;-143.84;73.79
6032;BME280;3044;43.232;27.972;2023-04-20T08:41:36;45132.84;;;-143.84;75.20
6032;BME280;3044;43.232;27.972;2023-04-20T08:44:03;45148.09;;;-143.84;74.65
6032;BME280;3044;43.232;27.972;2023-04-20T08:46:32;45121.44;;;-143.84;74.73
6032;BME280;3044;43.232;27.972;2023-04-20T08:49:00;45115.72;;;-143.84;72.40
6032;BME280;3044;43.232;27.972;2023-04-20T08:51:29;45121.44;;;-143.84;71.77
6032;BME280;3044;43.232;27.972;2023-04-20T08:53:58;45144.28;;;-143.84;71.66
6032;BME280;3044;43.232;27.972;2023-04-20T08:56:33;45121.44;;;-143.84;71.98
6032;BME280;3044;43.232;27.972;2023-04-20T08:59:01;45119.53;;;-143.84;72.02
6032;BME280;3044;43.232;27.972;2023-04-20T09:01:30;45136.66;;;-143.84;72.97
6032;BME280;3044;43.232;27.972;2023-04-20T09:03:58;45127.13;;;-143.84;73.45
6032;BME280;3044;43.232;27.972;2023-04-20T09:06:25;45111.91;;;-143.84;75.44
6032;BME280;3044;43.232;27.972;2023-04-20T09:08:55;45130.94;;;-143.84;73.12
6032;BME280;3044;43.232;27.972;2023-04-20T09:11:22;45127.13;;;-143.84;71.79
6032;BME280;3044;43.232;27.972;2023-04-20T09:14:00;45136.66;;;-143.84;71.34
6032;BME280;3044;43.232;27.972;2023-04-20T09:16:29;45111.91;;;-143.84;72.27
6032;BME280;3044;43.232;27.972;2023-04-20T09:18:57;45146.19;;;-143.84;72.23
6032;BME280;3044;43.232;27.972;2023-04-20T09:21:25;45125.22;;;-143.84;72.50
6032;BME280;3044;43.232;27.972;2023-04-20T09:23:59;45138.56;;;-143.84;73.13
6032;BME280;3044;43.232;27.972;2023-04-20T09:26:30;45138.56;;;-143.84;74.53
6032;BME280;3044;43.232;27.972;2023-04-20T09:28:57;45119.53;;;-143.84;74.75
6032;BME280;3044;43.232;27.972;2023-04-20T09:31:24;45132.84;;;-143.84;75.75
6032;BME280;3044;43.232;27.972;2023-04-20T09:33:56;45098.56;;;-143.84;77.67
6032;BME280;3044;43.232;27.972;2023-04-20T09:36:23;45092.88;;;-143.84;74.91
6032;BME280;3044;43.232;27.972;2023-04-20T09:39:02;45150.00;;;-143.84;74.49
6032;BME280;3044;43.232;27.972;2023-04-20T09:41:31;45127.13;;;-143.84;73.08
6032;BME280;3044;43.232;27.972;2023-04-20T09:43:58;45129.03;;;-143.84;71.20
6032;BME280;3044;43.232;27.972;2023-04-20T09:46:28;45132.84;;;-143.84;70.81
6032;BME280;3044;43.232;27.972;2023-04-20T09:48:57;45144.28;;;-143.84;71.20
6032;BME280;3044;43.232;27.972;2023-04-20T09:51:26;45119.53;;;-143.84;70.94
6032;BME280;3044;43.232;27.972;2023-04-20T09:53:57;45132.84;;;-143.84;71.69
6032;BME280;3044;43.232;27.972;2023-04-20T09:56:27;45121.44;;;-143.84;71.16
6032;BME280;3044;43.232;27.972;2023-04-20T09:58:54;45110.00;;;-143.84;71.01
6032;BME280;3044;43.232;27.972;2023-04-20T10:01:22;45136.66;;;-143.84;71.55
6032;BME280;3044;43.232;27.972;2023-04-20T10:03:51;45130.94;;;-143.84;72.01
6032;BME280;3044;43.232;27.972;2023-04-20T10:06:23;45125.22;;;-143.84;72.45
6032;BME280;3044;43.232;27.972;2023-04-20T10:08:53;45144.28;;;-143.84;72.28
6032;BME280;3044;43.232;27.972;2023-04-20T10:11:26;45148.09;;;-143.84;72.45
6032;BME280;3044;43.232;27.972;2023-04-20T10:13:54;45130.94;;;-143.84;72.75
6032;BME280;3044;43.232;27.972;2023-04-20T10:16:21;45146.19;;;-143.84;71.79
6032;BME280;3044;43.232;27.972;2023-04-20T10:18:58;45134.75;;;-143.84;72.21
6032;BME280;3044;43.232;27.972;2023-04-20T10:21:26;45159.50;;;-143.84;72.71
6032;BME280;3044;43.232;27.972;2023-04-20T10:23:54;45144.28;;;-143.84;72.62
6032;BME280;3044;43.232;27.972;2023-04-20T10:26:34;45129.03;;;-143.84;74.44
6032;BME280;3044;43.232;27.972;2023-04-20T10:29:03;45125.22;;;-143.84;75.71
6032;BME280;3044;43.232;27.972;2023-04-20T10:31:40;45119.53;;;-143.84;76.21
6032;BME280;3044;43.232;27.972;2023-04-20T10:34:08;45134.75;;;-143.84;76.07
6032;BME280;3044;43.232;27.972;2023-04-20T10:36:36;45130.94;;;-143.84;75.52
6032;BME280;3044;43.232;27.972;2023-04-20T10:39:13;45146.19;;;-143.84;75.89
6032;BME280;3044;43.232;27.972;2023-04-20T10:41:51;45144.28;;;-143.84;76.21
6032;BME280;3044;43.232;27.972;2023-04-20T10:44:21;45113.81;;;-143.84;76.31
6032;BME280;3044;43.232;27.972;2023-04-20T10:46:48;45136.66;;;-143.84;75.41
6032;BME280;3044;43.232;27.972;2023-04-20T10:49:16;45111.91;;;-143.84;75.58
6032;BME280;3044;43.232;27.972;2023-04-20T10:51:47;45113.81;;;-143.84;74.59
6032;BME280;3044;43.232;27.972;2023-04-20T10:54:15;45108.09;;;-143.84;74.50
6032;BME280;3044;43.232;27.972;2023-04-20T10:56:43;45085.25;;;-143.84;74.70
6032;BME280;3044;43.232;27.972;2023-04-20T10:59:12;45130.94;;;-143.84;74.84
6032;BME280;3044;43.232;27.972;2023-04-20T11:01:41;45110.00;;;-143.84;75.42
6032;BME280;3044;43.232;27.972;2023-04-20T11:04:08;45117.63;;;-143.84;75.29
6032;BME280;3044;43.232;27.972;2023-04-20T11:06:36;45140.47;;;-143.84;74.98
6032;BME280;3044;43.232;27.972;2023-04-20T11:09:15;45130.94;;;-143.84;75.05
6032;BME280;3044;43.232;27.972;2023-04-20T11:11:43;45123.34;;;-143.84;75.26
6032;BME280;3044;43.232;27.972;2023-04-20T11:14:11;45138.56;;;-143.84;75.32
6032;BME280;3044;43.232;27.972;2023-04-20T11:16:40;45146.19;;;-143.84;75.45
6032;BME280;3044;43.232;27.972;2023-04-20T11:19:21;45130.94;;;-143.84;75.43
6032;BME280;3044;43.232;27.972;2023-04-20T11:21:49;45138.56;;;-143.84;74.66
6032;BME280;3044;43.232;27.972;2023-04-20T11:24:17;45151.91;;;-143.84;73.46
6032;BME280;3044;43.232;27.972;2023-04-20T11:26:45;45132.84;;;-143.84;73.22
6032;BME280;3044;43.232;27.972;2023-04-20T11:29:26;45106.19;;;-143.84;73.89
6032;BME280;3044;43.232;27.972;2023-04-20T11:31:55;45138.56;;;-143.84;74.09
6032;BME280;3044;43.232;27.972;2023-04-20T11:34:22;45132.84;;;-143.84;72.48
6032;BME280;3044;43.232;27.972;2023-04-20T11:36:49;45121.44;;;-143.84;72.50
6032;BME280;3044;43.232;27.972;2023-04-20T11:39:22;45155.69;;;-143.84;72.55
6032;BME280;3044;43.232;27.972;2023-04-20T11:41:50;45132.84;;;-143.84;72.44
6032;BME280;3044;43.232;27.972;2023-04-20T11:44:17;45136.66;;;-143.84;72.25
6032;BME280;3044;43.232;27.972;2023-04-20T11:46:45;45132.84;;;-143.84;71.43
6032;BME280;3044;43.232;27.972;2023-04-20T11:49:15;45130.94;;;-143.84;71.84
6032;BME280;3044;43.232;27.972;2023-04-20T11:51:43;45136.66;;;-143.84;71.31
6032;BME280;3044;43.232;27.972;2023-04-20T11:54:11;45132.84;;;-143.84;72.26
6032;BME280;3044;43.232;27.972;2023-04-20T11:56:39;45144.28;;;-143.84;72.21
6032;BME280;3044;43.232;27.972;2023-04-20T11:59:09;45127.13;;;-143.84;71.17
6032;BME280;3044;43.232;27.972;2023-04-20T12:01:38;45136.66;;;-143.84;70.29
6032;BME280;3044;43.232;27.972;2023-04-20T12:04:06;45127.13;;;-143.84;69.77
6032;BME280;3044;43.232;27.972;2023-04-20T12:06:34;45125.22;;;-143.84;69.03
6032;BME280;3044;43.232;27.972;2023-04-20T12:09:01;45123.34;;;-143.84;69.01
6032;BME280;3044;43.232;27.972;2023-04-20T12:11:30;45155.69;;;-143.84;69.71
6032;BME280;3044;43.232;27.972;2023-04-20T12:13:57;45132.84;;;-143.84;69.99
6032;BME280;3044;43.232;27.972;2023-04-20T12:16:24;45140.47;;;-143.84;69.38
6032;BME280;3044;43.232;27.972;2023-04-20T12:18:52;45136.66;;;-143.84;69.81
6032;BME280;3044;43.232;27.972;2023-04-20T12:21:19;45151.91;;;-143.84;70.16
6032;BME280;3044;43.232;27.972;2023-04-20T12:23:47;45129.03;;;-143.84;70.94
6032;BME280;3044;43.232;27.972;2023-04-20T12:26:15;45174.75;;;-143.84;70.79
6032;BME280;3044;43.232;27.972;2023-04-20T12:28:42;45144.28;;;-143.84;71.02
6032;BME280;3044;43.232;27.972;2023-04-20T12:31:10;45148.09;;;-143.84;70.97
6032;BME280;3044;43.232;27.972;2023-04-20T12:33:37;45127.13;;;-143.84;71.03
6032;BME280;3044;43.232;27.972;2023-04-20T12:36:05;45151.91;;;-143.84;70.94
6032;BME280;3044;43.232;27.972;2023-04-20T12:38:32;45140.47;;;-143.84;71.69
6032;BME280;3044;43.232;27.972;2023-04-20T12:41:00;45161.41;;;-143.84;71.86
6032;BME280;3044;43.232;27.972;2023-04-20T12:43:29;45142.38;;;-143.84;71.58
6032;BME280;3044;43.232;27.972;2023-04-20T12:45:56;45140.47;;;-143.84;71.51
6032;BME280;3044;43.232;27.972;2023-04-20T12:48:23;45140.47;;;-143.84;71.93
6032;BME280;3044;43.232;27.972;2023-04-20T12:50:51;45148.09;;;-143.84;71.96
6032;BME280;3044;43.232;27.972;2023-04-20T12:53:18;45136.66;;;-143.84;72.23
6032;BME280;3044;43.232;27.972;2023-04-20T12:55:45;45138.56;;;-143.84;71.35